CheckWX is a tool to help pilots better visualize weather data.  It is not intended as a substitute for an official pre-flight weather briefing.

00:40:27 UTC

UTDT TAF
Qurghonteppa International Airport
Kurgan-Tyube, Tajikistan
TAF UTDT 270000Z 2701/2710 VRB02MPS 6000 SCT040CB BKN100 TEMPO 2701/2710 19008MPS 3100 -SHRA BR PROB40 TEMPO 2701/2710 2000 TSRA BR

Mar-27@
01:00 UTC

Mar-27 @ 01:00 UTC

Mar-27@
10:00 UTC

Mar-27 @ 10:00 UTC

TAF UTDT 270000Z 2701/2710 VRB02MPS 6000 SCT040CB BKN100
Wind
  • Variable at 4 KTS
Cloud Levels
  • Scattered at 4,000' AGL
  • Broken at 10,000' AGL

Mar-27@
01:00 UTC

Mar-27 @ 01:00 UTC

Mar-27@
10:00 UTC

Mar-27 @ 10:00 UTC

TEMPO 2701/2710 19008MPS 3100 -SHRA BR

Temporary

Temporary Changes expected for less than half the time period

Wind
  • 190° at 16 KTS
Conditions
Light Rain, Mist

Mar-27@
01:00 UTC

Mar-27 @ 01:00 UTC

Mar-27@
10:00 UTC

Mar-27 @ 10:00 UTC

PROB40 TEMPO 2701/2710 2000 TSRA BR

Temporary - 40% Likelihood

Temporary - 40% Likelihood during this time.

Conditions
Thunderstorm, Rain, Mist